Aeroporto :
LOGIN :

Iscrizione | Disclaimer

   EN    FR    IT 

 










Sommario :    VFR   VFR Marginale   IFR   IFR Intensivo   IFR Molto Intensivo
Visibilità : 
Base nubi : 
>= 8 km
>= 3000ft
5 / 8 km
1000 / 3000 ft
1500m / 5 km
500 / 1000 ft
800 / 1500m
200 / 500 ft
< 800m
< 200 ft
Simboli :   Temporali  Nebbia  Neve Forte  Precipitazioni Forti  Vento > 20 kt
SIGMETs :   Varie  Temporali  Ghiacco  Turbolenza  Onda orograficha  Ceneri Vulcaniche






- Altitudine del aeroporto : 13 ft
- Codice IATA : GOA


LIMJ - Genoa Cristoforo Colombo

ULTIMO METAR :
  • 021450Z 03012KT 9999 -RA FEW025 BKN045 05/02 Q1007

METARs OBSOLETI :
  • 021420Z 02009KT 350V050 9999 -RA SCT025 BKN040 06/02 Q1007
  • 021350Z 02010KT 9999 -RA SCT025 OVC040 05/02 Q1008
  • 021320Z 02012KT 9999 -RA SCT025 BKN040 05/02 Q1008
  • 021250Z 02013KT 9999 -RA SCT030 BKN040 05/02 Q1008
  • 021220Z 03013KT 9999 -RA SCT030 OVC045 06/02 Q1008

TAF TAF LIMJ
Valido dal 02 a 12 ore il 03 a 12 ore UTC


021100Z 0212/0312 03015KT 9999 SCT030 BKN050



MetMap, La meteo Aeronautica in un colpo d'occhio ! - Copyright ORBIFLY Dicembre 2007 - Disclaimer

ORBIFLY MET'MAP TEAM :

Programmazione e sviluppo : Alexandra Zaïnal
Concezione : Baudouin d'Aumeries
Aiuto per la programmazione : Marc-Olivier Méhu
Supporto tecnico e logistico : Manuel Goepfert
Aiuto per la traduzione : Arnaldo La Scala

Contatto : metmap@orbifly.com




FONTI E CREDITI :

   NOAA